New Caney, Texas
Current Conditions -  °F | °C
As of 8:24 PM on Saturday 22 Nov 2014 (Local Time) from KIAH Reporting Station
Haze Haze  
Wind Chill: 66°   Ceiling: 1700
Heat Index: 66°   Visibility: 2mi
Dew Point: 64°   Wind: 7mph
Humidity: 94%   Direction: 160°SSE
Pressure: 29.81"   Gusts: NA
Location:  30.16°N, 95.21°W
Report Text: KIAH 230224Z 16006KT 2SM BR FEW008 BKN017 OVC055 19/18 A2981 RMK AO2 SFC VIS 6
Loading
Personal Weather Stations






























Interactive Weather Map New forecast layout! Learn more

10-Day Weather Forecast

Advertisements
Track Severe Weather on mobile